Time;durP1;ratioP1;P1;durP2;ratioP2;P2;SDS_P1;SDS_P2;PMS_P1;PMS_P2;Temp;Humidity;BMP_temperature;BMP_pressure;BME280_temperature;BME280_humidity;BME280_pressure;Samples;Min_cycle;Max_cycle;Signal;HPM_P1;HPM_P2
2024/04/01 00:01:09;;;;;;;8.40;5.23;;;12.00;99.90;;;;;;5052341;28;20388;-82
2024/04/01 00:03:34;;;;;;;7.50;4.40;;;11.40;99.90;;;;;;5049204;28;20385;-83
2024/04/01 00:06:00;;;;;;;8.02;4.75;;;;;;;;;;5063145;28;20862;-83
2024/04/01 00:08:26;;;;;;;6.60;4.75;;;11.50;99.90;;;;;;5061001;28;20497;-83
2024/04/01 00:10:52;;;;;;;5.25;4.75;;;11.60;99.90;;;;;;5044328;28;20379;-84
2024/04/01 00:13:18;;;;;;;9.10;4.20;;;;;;;;;;5063325;28;20439;-83
2024/04/01 00:15:44;;;;;;;6.15;4.55;;;;;;;;;;5041964;28;20409;-83
2024/04/01 00:18:11;;;;;;;6.60;4.10;;;11.80;99.90;;;;;;5062152;28;20403;-82
2024/04/01 00:20:37;;;;;;;6.17;4.10;;;11.60;99.90;;;;;;5044575;28;20830;-82
2024/04/01 00:23:03;;;;;;;9.32;4.55;;;12.00;99.90;;;;;;5041258;28;20394;-83
2024/04/01 00:25:29;;;;;;;12.40;4.70;;;;;;;;;;5031380;28;20395;-83
2024/04/01 00:27:55;;;;;;;6.40;4.70;;;11.80;99.90;;;;;;5043501;28;20413;-83
2024/04/01 00:30:21;;;;;;;6.10;2.92;;;12.00;99.90;;;;;;5046629;28;20384;-83
2024/04/01 00:32:46;;;;;;;6.50;3.03;;;11.60;99.90;;;;;;5062302;28;20394;-83
2024/04/01 00:35:14;;;;;;;5.63;2.60;;;11.40;99.90;;;;;;5060455;28;20384;-83
2024/04/01 00:37:40;;;;;;;2.42;2.22;;;11.20;99.90;;;;;;5043089;28;20404;-83
2024/04/01 00:40:06;;;;;;;4.37;2.50;;;11.40;99.90;;;;;;5044825;28;20384;-83
2024/04/01 00:42:32;;;;;;;5.55;2.20;;;;;;;;;;5050989;28;20393;-83
2024/04/01 00:44:58;;;;;;;3.70;2.40;;;11.80;99.90;;;;;;5061760;28;20392;-83
2024/04/01 00:47:24;;;;;;;5.20;1.55;;;11.70;99.90;;;;;;5055047;28;20457;-83
2024/04/01 00:49:50;;;;;;;1.70;1.30;;;11.50;99.90;;;;;;5047040;28;20387;-83
2024/04/01 00:52:17;;;;;;;1.70;1.60;;;;;;;;;;5041187;28;20383;-82
2024/04/01 00:54:43;;;;;;;2.90;1.23;;;11.60;99.90;;;;;;5056106;28;20378;-83
2024/04/01 00:57:09;;;;;;;5.10;1.70;;;;;;;;;;5069844;28;20476;-83
2024/04/01 00:59:35;;;;;;;3.30;1.40;;;10.70;99.90;;;;;;5045027;28;20430;-83
2024/04/01 01:02:02;;;;;;;5.00;1.50;;;11.60;99.90;;;;;;5047299;28;20451;-83
2024/04/01 01:04:29;;;;;;;1.80;1.35;;;11.30;99.90;;;;;;5061812;28;20434;-83
2024/04/01 01:06:55;;;;;;;3.75;1.30;;;10.70;99.90;;;;;;5043595;28;20413;-83
2024/04/01 01:09:21;;;;;;;2.30;1.40;;;10.80;99.90;;;;;;5063862;28;20378;-82
2024/04/01 01:11:47;;;;;;;3.20;1.33;;;;;;;;;;5050313;28;20495;-83
2024/04/01 01:14:13;;;;;;;1.70;1.00;;;10.40;99.90;;;;;;5051882;28;20412;-82
2024/04/01 01:16:39;;;;;;;1.70;1.00;;;11.30;99.90;;;;;;5042170;28;20398;-84
2024/04/01 01:19:08;;;;;;;1.10;0.80;;;10.80;99.90;;;;;;5045126;28;20395;-82
2024/04/01 01:21:34;;;;;;;1.90;0.80;;;10.60;99.90;;;;;;5059557;28;20397;-81
2024/04/01 01:24:01;;;;;;;1.03;0.67;;;10.50;99.90;;;;;;5048553;28;20397;-84
2024/04/01 01:26:26;;;;;;;1.10;0.80;;;12.00;99.90;;;;;;5044890;28;20375;-82
2024/04/01 01:28:52;;;;;;;1.10;0.70;;;11.00;99.90;;;;;;5055176;28;20453;-82
2024/04/01 01:31:19;;;;;;;2.20;0.90;;;10.30;99.90;;;;;;5044721;28;20494;-84
2024/04/01 01:33:44;;;;;;;2.28;0.65;;;11.00;99.90;;;;;;5053048;28;20365;-84
2024/04/01 01:36:11;;;;;;;1.30;0.80;;;;;;;;;;5054136;28;20500;-82
2024/04/01 01:38:36;;;;;;;1.60;0.80;;;10.60;99.90;;;;;;5054687;28;20424;-81
2024/04/01 01:41:02;;;;;;;1.67;1.00;;;10.30;99.90;;;;;;5068551;28;20400;-82
2024/04/01 01:43:28;;;;;;;1.67;0.77;;;10.70;99.90;;;;;;5061071;28;20393;-84
2024/04/01 01:45:54;;;;;;;1.60;0.90;;;;;;;;;;5024949;28;20453;-83
2024/04/01 01:48:19;;;;;;;1.70;0.80;;;10.70;99.90;;;;;;5054801;28;20425;-83
2024/04/01 01:50:45;;;;;;;2.70;1.40;;;10.10;99.90;;;;;;5044016;28;20403;-84
2024/04/01 01:53:10;;;;;;;1.70;0.80;;;10.80;99.90;;;;;;5043277;28;20383;-83
2024/04/01 01:55:36;;;;;;;1.20;0.80;;;11.00;99.90;;;;;;5057540;28;20393;-82
2024/04/01 01:58:02;;;;;;;2.70;1.00;;;;;;;;;;5046387;28;20769;-83
2024/04/01 02:00:28;;;;;;;1.70;0.70;;;10.40;99.90;;;;;;5028882;28;20896;-83
2024/04/01 02:02:53;;;;;;;1.98;1.20;;;10.70;99.90;;;;;;5024367;28;20476;-83
2024/04/01 02:05:19;;;;;;;1.70;0.90;;;;;;;;;;5063570;28;20389;-83
2024/04/01 02:07:45;;;;;;;2.90;0.90;;;;;;;;;;5064707;28;20420;-82
2024/04/01 02:10:13;;;;;;;3.10;1.00;;;10.50;99.90;;;;;;5064058;28;20388;-84
2024/04/01 02:12:39;;;;;;;2.20;1.00;;;;;;;;;;5040902;28;20389;-82
2024/04/01 02:15:06;;;;;;;2.20;1.10;;;10.80;99.90;;;;;;5064817;28;20400;-82
2024/04/01 02:17:32;;;;;;;1.88;1.20;;;9.80;99.90;;;;;;5064695;28;20475;-83
2024/04/01 02:19:58;;;;;;;3.10;0.95;;;10.40;99.90;;;;;;5043286;28;20418;-82
2024/04/01 02:22:23;;;;;;;1.75;0.82;;;10.10;99.90;;;;;;5045060;28;20382;-82
2024/04/01 02:24:49;;;;;;;2.50;1.00;;;10.20;99.90;;;;;;5044979;28;20417;-83
2024/04/01 02:27:15;;;;;;;0.90;0.60;;;10.80;99.90;;;;;;5045456;28;20964;-83
2024/04/01 02:29:40;;;;;;;2.80;0.98;;;11.00;99.90;;;;;;5053267;28;20417;-83
2024/04/01 02:32:06;;;;;;;0.80;0.70;;;10.60;99.90;;;;;;5065768;28;20435;-82
2024/04/01 02:34:32;;;;;;;1.33;0.87;;;;;;;;;;5063638;28;20385;-82
2024/04/01 02:36:58;;;;;;;1.60;0.70;;;10.70;99.90;;;;;;5045772;28;20384;-83
2024/04/01 02:39:24;;;;;;;1.30;0.70;;;10.50;99.90;;;;;;5065608;28;20396;-83
2024/04/01 02:41:50;;;;;;;1.23;0.70;;;10.70;99.90;;;;;;5065810;28;20386;-82
2024/04/01 02:44:17;;;;;;;1.05;0.70;;;;;;;;;;5064781;28;20449;-82
2024/04/01 02:46:43;;;;;;;1.30;0.88;;;10.30;99.90;;;;;;5063677;28;20417;-82
2024/04/01 02:49:09;;;;;;;1.60;0.90;;;10.70;99.90;;;;;;5059946;28;20527;-83
2024/04/01 02:51:35;;;;;;;0.90;0.70;;;10.50;99.90;;;;;;5048500;28;20894;-82
2024/04/01 02:54:01;;;;;;;1.10;0.70;;;10.20;99.90;;;;;;5044893;28;20383;-83
2024/04/01 02:56:27;;;;;;;1.10;0.60;;;;;;;;;;5045493;28;20391;-83
2024/04/01 02:58:52;;;;;;;2.05;0.80;;;10.90;99.90;;;;;;5047447;28;20387;-83
2024/04/01 03:01:18;;;;;;;1.98;0.70;;;10.00;99.90;;;;;;5046986;28;20386;-83
2024/04/01 03:03:48;;;;;;;1.55;0.70;;;;;;;;;;5064413;28;20377;-83
2024/04/01 03:06:13;;;;;;;2.00;0.70;;;10.30;99.90;;;;;;5050548;28;20431;-82
2024/04/01 03:08:39;;;;;;;2.27;0.57;;;10.90;99.90;;;;;;5074574;28;20409;-82
2024/04/01 03:11:05;;;;;;;1.30;0.70;;;;;;;;;;5071967;28;20392;-83
2024/04/01 03:13:31;;;;;;;1.88;0.60;;;10.40;99.90;;;;;;5065227;28;20377;-82
2024/04/01 03:15:57;;;;;;;0.90;0.40;;;10.50;99.90;;;;;;5056134;28;20413;-83
2024/04/01 03:18:24;;;;;;;0.90;0.68;;;10.80;99.90;;;;;;5047626;28;20394;-82
2024/04/01 03:20:52;;;;;;;0.70;0.40;;;10.10;99.90;;;;;;5055227;28;20405;-81
2024/04/01 03:23:17;;;;;;;1.20;0.70;;;10.30;99.90;;;;;;5055135;28;20399;-82
2024/04/01 03:25:49;;;;;;;2.60;0.70;;;11.60;99.90;;;;;;5054732;28;20421;-83
2024/04/01 03:28:14;;;;;;;1.10;0.80;;;9.80;99.90;;;;;;5058535;28;20469;-83
2024/04/01 03:30:40;;;;;;;0.70;0.40;;;10.10;99.90;;;;;;5050031;28;20411;-83
2024/04/01 03:33:06;;;;;;;0.90;0.50;;;;;;;;;;5054168;28;20400;-81
2024/04/01 03:35:33;;;;;;;0.70;0.50;;;10.50;99.90;;;;;;5053629;28;20402;-82
2024/04/01 03:37:58;;;;;;;0.85;0.40;;;10.20;99.90;;;;;;5044491;28;20464;-83
2024/04/01 03:40:24;;;;;;;1.40;0.50;;;9.90;99.90;;;;;;5054779;28;20446;-82
2024/04/01 03:42:49;;;;;;;1.20;0.40;;;9.90;99.90;;;;;;5043238;28;20396;-82
2024/04/01 03:45:15;;;;;;;0.60;0.40;;;10.10;99.90;;;;;;5042891;28;20385;-82
2024/04/01 03:47:40;;;;;;;0.90;0.50;;;9.90;99.90;;;;;;5043386;28;20408;-82
2024/04/01 03:50:06;;;;;;;0.60;0.40;;;9.70;99.90;;;;;;5042581;28;20480;-82
2024/04/01 03:52:35;;;;;;;0.60;0.50;;;9.90;99.90;;;;;;5050835;28;20407;-82
2024/04/01 03:55:01;;;;;;;0.65;0.50;;;9.90;99.90;;;;;;5047015;28;20378;-82
2024/04/01 03:57:26;;;;;;;1.07;0.40;;;9.60;99.90;;;;;;5056426;28;20422;-81
2024/04/01 03:59:52;;;;;;;0.70;0.60;;;9.70;99.90;;;;;;5065233;28;20448;-81
2024/04/01 04:02:17;;;;;;;0.70;0.50;;;9.50;99.90;;;;;;5058275;28;20391;-82
2024/04/01 04:04:43;;;;;;;2.30;0.50;;;9.80;99.90;;;;;;5066195;28;20387;-82
2024/04/01 04:07:09;;;;;;;0.50;0.40;;;;;;;;;;5053070;28;20452;-82
2024/04/01 04:09:34;;;;;;;1.90;0.50;;;10.10;99.90;;;;;;5040836;28;20744;-82
2024/04/01 04:12:00;;;;;;;0.80;0.50;;;9.80;99.90;;;;;;5041739;28;20392;-82
2024/04/01 04:14:26;;;;;;;1.60;0.40;;;;;;;;;;5049404;28;20399;-83
2024/04/01 04:16:52;;;;;;;1.10;0.50;;;10.50;99.90;;;;;;5047520;28;20402;-83
2024/04/01 04:19:19;;;;;;;1.10;0.70;;;9.50;99.90;;;;;;5047579;28;20484;-83
2024/04/01 04:21:45;;;;;;;2.38;0.60;;;;;;;;;;5046789;28;20460;-84
2024/04/01 04:24:11;;;;;;;1.00;0.63;;;9.60;99.90;;;;;;5045866;28;20391;-81
2024/04/01 04:26:38;;;;;;;1.27;0.60;;;;;;;;;;5045659;28;20425;-84
2024/04/01 04:29:04;;;;;;;0.50;0.50;;;9.50;99.90;;;;;;5047605;28;20389;-83
2024/04/01 04:31:31;;;;;;;0.70;0.60;;;;;;;;;;5047404;28;20894;-84
2024/04/01 04:33:57;;;;;;;1.50;0.80;;;;;;;;;;5047856;28;20894;-84
2024/04/01 04:36:22;;;;;;;1.23;0.93;;;9.10;99.90;;;;;;5033424;28;20476;-85
2024/04/01 04:38:48;;;;;;;1.10;0.77;;;9.10;99.90;;;;;;5048299;28;20885;-85
2024/04/01 04:41:19;;;;;;;1.48;0.80;;;9.30;99.90;;;;;;5037476;28;20398;-84
2024/04/01 04:43:45;;;;;;;1.60;0.80;;;9.40;99.90;;;;;;5046384;28;20405;-84
2024/04/01 04:46:14;;;;;;;1.60;1.02;;;;;;;;;;5050265;28;20389;-84
2024/04/01 04:48:41;;;;;;;1.65;0.90;;;9.40;99.90;;;;;;5079930;22;20714;-82
2024/04/01 04:51:07;;;;;;;1.35;0.80;;;;;;;;;;5043838;28;20810;-82
2024/04/01 04:53:33;;;;;;;3.38;0.90;;;9.20;99.90;;;;;;5058759;28;20404;-80
2024/04/01 04:55:59;;;;;;;1.70;0.80;;;8.90;99.90;;;;;;5063137;28;20454;-81
2024/04/01 04:58:25;;;;;;;2.20;0.97;;;;;;;;;;5062680;28;20385;-82
2024/04/01 05:00:50;;;;;;;1.80;1.30;;;9.20;99.90;;;;;;5052246;28;20397;-80
2024/04/01 05:03:16;;;;;;;1.00;0.90;;;9.10;99.90;;;;;;5051064;28;20446;-80
2024/04/01 05:05:41;;;;;;;1.00;0.70;;;9.80;99.90;;;;;;5033802;28;20394;-82
2024/04/01 05:08:07;;;;;;;1.00;0.75;;;9.70;99.90;;;;;;5032856;28;20407;-80
2024/04/01 05:10:34;;;;;;;1.30;0.80;;;9.60;99.90;;;;;;5043515;28;20473;-81
2024/04/01 05:12:59;;;;;;;2.00;0.80;;;9.90;99.90;;;;;;5042520;28;20827;-82
2024/04/01 05:15:25;;;;;;;0.73;0.70;;;9.80;99.90;;;;;;5042809;28;20464;-81
2024/04/01 05:17:51;;;;;;;0.80;0.60;;;9.10;99.90;;;;;;5042328;28;20389;-81
2024/04/01 05:20:17;;;;;;;2.70;0.50;;;9.10;99.90;;;;;;5041201;28;20382;-81
2024/04/01 05:22:43;;;;;;;1.13;0.60;;;;;;;;;;5032198;28;20387;-81
2024/04/01 05:25:09;;;;;;;1.20;0.70;;;9.80;99.90;;;;;;5045813;28;20466;-81
2024/04/01 05:27:34;;;;;;;0.85;0.70;;;9.80;99.90;;;;;;5040001;28;20435;-79
2024/04/01 05:30:08;;;;;;;1.30;0.70;;;9.00;99.90;;;;;;5041253;28;20389;-79
2024/04/01 05:32:35;;;;;;;1.20;0.50;;;9.60;99.90;;;;;;5058642;28;20417;-79
2024/04/01 05:35:01;;;;;;;1.20;0.68;;;9.40;99.90;;;;;;5056151;28;20476;-80
2024/04/01 05:37:27;;;;;;;1.80;0.80;;;;;;;;;;5037105;28;20448;-80
2024/04/01 05:39:52;;;;;;;0.95;0.80;;;9.70;99.90;;;;;;5054190;28;20870;-79
2024/04/01 05:42:19;;;;;;;1.40;0.85;;;9.30;99.90;;;;;;5021046;28;20407;-80
2024/04/01 05:44:45;;;;;;;1.80;0.95;;;9.30;99.90;;;;;;5022898;28;20594;-81
2024/04/01 05:47:11;;;;;;;0.82;0.70;;;;;;;;;;5032626;28;20405;-81
2024/04/01 05:49:37;;;;;;;1.60;0.70;;;;;;;;;;5037895;28;20389;-80
2024/04/01 05:52:03;;;;;;;0.70;0.70;;;9.90;99.90;;;;;;5056166;28;20397;-81
2024/04/01 05:54:30;;;;;;;1.10;0.70;;;10.00;99.90;;;;;;5055018;28;20467;-81
2024/04/01 05:56:56;;;;;;;2.00;1.02;;;9.80;99.90;;;;;;5047684;28;20435;-81
2024/04/01 05:59:22;;;;;;;0.73;0.73;;;9.90;99.90;;;;;;5056451;28;20412;-79
2024/04/01 06:01:48;;;;;;;0.97;0.50;;;10.30;99.90;;;;;;5045406;28;20389;-80
2024/04/01 06:04:14;;;;;;;0.60;0.40;;;10.10;99.90;;;;;;5067161;28;20449;-79
2024/04/01 06:06:41;;;;;;;0.60;0.30;;;;;;;;;;5067291;28;20874;-81
2024/04/01 06:09:07;;;;;;;0.40;0.30;;;;;;;;;;5041990;28;20381;-81
2024/04/01 06:11:33;;;;;;;0.50;0.30;;;;;;;;;;5040528;28;20403;-81
2024/04/01 06:13:58;;;;;;;0.40;0.30;;;9.70;99.90;;;;;;5052667;28;20385;-82
2024/04/01 06:16:24;;;;;;;0.40;0.30;;;9.80;99.90;;;;;;5037225;28;20379;-82
2024/04/01 06:18:50;;;;;;;1.73;0.55;;;;;;;;;;5024848;28;20391;-79
2024/04/01 06:21:16;;;;;;;0.50;0.40;;;9.90;99.90;;;;;;5053426;28;20431;-81
2024/04/01 06:23:41;;;;;;;0.80;0.30;;;10.20;99.90;;;;;;5054408;28;20399;-79
2024/04/01 06:26:07;;;;;;;0.50;0.30;;;10.10;99.90;;;;;;5050148;28;20404;-80
2024/04/01 06:28:33;;;;;;;0.60;0.40;;;9.90;99.90;;;;;;5056036;28;20915;-79
2024/04/01 06:30:59;;;;;;;0.40;0.30;;;;;;;;;;5049707;28;20411;-80
2024/04/01 06:33:25;;;;;;;0.40;0.30;;;;;;;;;;5026534;28;20449;-81
2024/04/01 06:36:02;;;;;;;0.80;0.40;;;9.90;99.90;;;;;;5030052;28;20384;-82
2024/04/01 06:38:29;;;;;;;1.10;0.38;;;10.30;99.90;;;;;;5027849;28;20399;-82
2024/04/01 06:40:55;;;;;;;0.50;0.30;;;10.30;99.90;;;;;;5050815;28;20410;-81
2024/04/01 06:43:21;;;;;;;0.50;0.40;;;;;;;;;;5038089;28;20379;-82
2024/04/01 06:45:58;;;;;;;0.80;0.52;;;9.90;99.90;;;;;;5045884;28;20393;-80
2024/04/01 06:48:24;;;;;;;0.45;0.30;;;9.60;99.90;;;;;;5056871;28;20409;-82
2024/04/01 06:50:50;;;;;;;0.70;0.40;;;9.50;99.90;;;;;;5052479;28;20402;-81
2024/04/01 06:53:19;;;;;;;0.50;0.40;;;9.80;99.90;;;;;;5049561;28;20412;-81
2024/04/01 06:55:45;;;;;;;0.55;0.40;;;10.20;99.90;;;;;;5053723;28;20961;-81
2024/04/01 06:58:11;;;;;;;0.60;0.38;;;;;;;;;;5021454;28;20395;-82
2024/04/01 07:00:37;;;;;;;1.00;0.50;;;9.70;99.90;;;;;;5020483;28;20429;-81
2024/04/01 07:03:02;;;;;;;0.95;0.40;;;10.30;99.90;;;;;;5037877;28;20470;-82
2024/04/01 07:05:29;;;;;;;0.60;0.30;;;10.30;99.90;;;;;;5036247;28;20408;-80
2024/04/01 07:07:54;;;;;;;0.70;0.30;;;10.30;99.90;;;;;;5056487;28;20781;-82
2024/04/01 07:10:20;;;;;;;0.40;0.30;;;9.80;99.90;;;;;;5054809;28;20385;-80
2024/04/01 07:12:45;;;;;;;0.70;0.30;;;10.50;99.90;;;;;;5056255;28;20381;-80
2024/04/01 07:15:12;;;;;;;0.63;0.30;;;;;;;;;;5039095;28;20396;-82
2024/04/01 07:17:38;;;;;;;0.40;0.30;;;;;;;;;;5039402;28;20381;-79
2024/04/01 07:20:05;;;;;;;0.40;0.20;;;;;;;;;;5042277;28;20383;-82
2024/04/01 07:22:30;;;;;;;0.40;0.20;;;9.90;99.90;;;;;;5036478;28;20463;-81
2024/04/01 07:24:56;;;;;;;0.40;0.30;;;10.00;99.90;;;;;;5029978;28;20395;-82
2024/04/01 07:27:21;;;;;;;0.40;0.20;;;9.80;99.90;;;;;;5036498;28;20410;-82
2024/04/01 07:29:47;;;;;;;0.40;0.27;;;10.50;99.90;;;;;;5038164;28;20480;-82
2024/04/01 07:32:12;;;;;;;0.40;0.30;;;10.50;99.90;;;;;;5056182;28;20433;-82
2024/04/01 07:34:38;;;;;;;0.40;0.30;;;10.70;99.90;;;;;;5032606;28;20393;-83
2024/04/01 07:37:05;;;;;;;0.40;0.20;;;9.90;99.90;;;;;;5056049;28;20389;-83
2024/04/01 07:39:30;;;;;;;1.00;0.40;;;9.90;99.90;;;;;;5029128;28;20394;-81
2024/04/01 07:41:56;;;;;;;0.40;0.30;;;9.80;99.90;;;;;;5036966;28;20387;-82
2024/04/01 07:44:21;;;;;;;1.50;0.30;;;9.90;99.90;;;;;;5037751;28;20399;-80
2024/04/01 07:46:47;;;;;;;0.40;0.30;;;;;;;;;;5045948;28;20383;-79
2024/04/01 07:49:13;;;;;;;0.50;0.30;;;10.10;99.90;;;;;;5054293;28;20374;-82
2024/04/01 07:51:38;;;;;;;0.40;0.30;;;9.70;99.90;;;;;;5046296;28;20472;-80
2024/04/01 07:54:04;;;;;;;0.50;0.30;;;;;;;;;;5057520;28;20393;-83
2024/04/01 07:56:30;;;;;;;0.40;0.30;;;10.30;99.90;;;;;;5038995;28;20792;-81
2024/04/01 07:58:56;;;;;;;0.70;0.40;;;10.40;99.90;;;;;;5038594;28;20410;-83
2024/04/01 08:01:22;;;;;;;0.40;0.30;;;10.30;99.90;;;;;;5056850;28;20397;-80
2024/04/01 08:03:47;;;;;;;1.00;0.30;;;10.50;99.90;;;;;;5034468;28;20522;-82
2024/04/01 08:06:13;;;;;;;0.43;0.30;;;10.40;99.90;;;;;;5044682;28;20395;-80
2024/04/01 08:08:38;;;;;;;0.90;0.30;;;9.90;99.90;;;;;;5038730;28;20415;-82
2024/04/01 08:11:05;;;;;;;0.80;0.60;;;10.60;99.90;;;;;;5046627;28;20758;-80
2024/04/01 08:13:30;;;;;;;1.80;0.30;;;10.00;99.90;;;;;;5035707;28;20382;-82
2024/04/01 08:16:03;;;;;;;0.60;0.30;;;10.10;99.90;;;;;;5022426;28;20391;-80
2024/04/01 08:18:29;;;;;;;0.50;0.30;;;10.10;99.90;;;;;;5035577;28;20762;-81
2024/04/01 08:20:56;;;;;;;0.50;0.30;;;9.70;99.90;;;;;;5053109;28;20465;-81
2024/04/01 08:23:22;;;;;;;1.30;0.30;;;10.10;99.90;;;;;;5033834;28;20399;-80
2024/04/01 08:25:47;;;;;;;0.90;0.30;;;10.10;99.90;;;;;;5019020;28;20480;-81
2024/04/01 08:28:13;;;;;;;0.40;0.30;;;;;;;;;;5037819;28;20936;-82
2024/04/01 08:30:39;;;;;;;0.70;0.40;;;9.60;99.90;;;;;;5035752;28;20379;-81
2024/04/01 08:33:05;;;;;;;0.40;0.30;;;10.30;99.90;;;;;;5042042;28;20393;-80
2024/04/01 08:35:31;;;;;;;0.40;0.30;;;;;;;;;;5029103;28;20461;-81
2024/04/01 08:37:57;;;;;;;0.47;0.38;;;9.70;99.90;;;;;;5024094;28;20881;-81
2024/04/01 08:40:23;;;;;;;0.40;0.30;;;9.50;99.90;;;;;;5032121;28;20429;-82
2024/04/01 08:42:53;;;;;;;0.50;0.30;;;9.10;99.90;;;;;;5036783;28;20765;-81
2024/04/01 08:45:18;;;;;;;0.40;0.30;;;10.00;99.90;;;;;;5045910;28;20395;-82
2024/04/01 08:47:50;;;;;;;0.50;0.30;;;9.30;99.90;;;;;;5040350;28;20403;-81
2024/04/01 08:50:21;;;;;;;1.05;0.30;;;9.40;99.90;;;;;;5039704;28;20418;-79
2024/04/01 08:53:02;;;;;;;0.50;0.40;;;9.70;99.90;;;;;;5057704;28;20899;-80
2024/04/01 08:55:29;;;;;;;0.60;0.30;;;;;;;;;;5043884;28;20413;-81
2024/04/01 08:57:56;;;;;;;0.40;0.30;;;9.90;99.90;;;;;;5045867;28;20378;-80
2024/04/01 09:00:22;;;;;;;0.40;0.30;;;;;;;;;;5047746;28;20382;-80
2024/04/01 09:02:48;;;;;;;0.50;0.30;;;;;;;;;;5045357;28;20784;-79
2024/04/01 09:05:14;;;;;;;0.40;0.30;;;10.10;99.90;;;;;;5053418;28;20387;-81
2024/04/01 09:07:39;;;;;;;0.50;0.30;;;10.10;99.90;;;;;;5036616;28;20417;-82
2024/04/01 09:10:06;;;;;;;0.80;0.30;;;9.80;99.90;;;;;;5042597;28;20390;-81
2024/04/01 09:12:33;;;;;;;0.60;0.30;;;;;;;;;;5044675;28;20756;-81
2024/04/01 09:14:58;;;;;;;0.40;0.40;;;10.00;99.90;;;;;;5034286;28;20375;-82
2024/04/01 09:17:28;;;;;;;0.60;0.30;;;9.70;99.90;;;;;;5033585;28;20412;-81
2024/04/01 09:20:01;;;;;;;0.40;0.30;;;9.30;99.90;;;;;;5034311;28;20404;-80
2024/04/01 09:22:26;;;;;;;0.40;0.30;;;9.80;99.90;;;;;;5034398;28;20484;-81
2024/04/01 09:24:52;;;;;;;0.70;0.30;;;9.20;99.90;;;;;;5032622;28;20480;-80
2024/04/01 09:27:17;;;;;;;0.40;0.30;;;9.90;99.90;;;;;;5042622;28;20503;-81
2024/04/01 09:29:43;;;;;;;0.50;0.40;;;;;;;;;;5045070;28;20393;-80
2024/04/01 09:32:09;;;;;;;0.50;0.30;;;10.00;99.90;;;;;;5031278;28;20393;-81
2024/04/01 09:34:36;;;;;;;0.50;0.40;;;9.90;99.90;;;;;;5032851;28;20889;-80
2024/04/01 09:37:02;;;;;;;0.60;0.40;;;9.10;99.90;;;;;;5041727;28;20395;-80
2024/04/01 09:39:28;;;;;;;0.50;0.30;;;9.60;99.90;;;;;;5041182;28;20384;-81
2024/04/01 09:41:53;;;;;;;1.05;0.38;;;;;;;;;;5031746;28;20399;-80
2024/04/01 09:44:19;;;;;;;0.50;0.30;;;9.00;99.90;;;;;;5045790;28;20394;-81
2024/04/01 09:46:45;;;;;;;0.60;0.40;;;;;;;;;;5036576;28;20391;-79
2024/04/01 09:49:11;;;;;;;0.60;0.30;;;;;;;;;;5035942;28;20407;-80
2024/04/01 09:51:37;;;;;;;0.60;0.30;;;9.30;99.90;;;;;;5042657;28;20385;-80
2024/04/01 09:54:03;;;;;;;0.50;0.30;;;9.50;99.90;;;;;;5055210;28;20393;-79
2024/04/01 09:57:10;;;;;;;0.40;0.30;;;9.10;99.90;;;;;;5040964;28;20385;-82
2024/04/01 10:00:09;;;;;;;0.40;0.30;;;8.90;99.90;;;;;;5035114;28;20852;-80
2024/04/01 10:02:41;;;;;;;0.70;0.40;;;;;;;;;;5034857;28;20395;-81
2024/04/01 10:05:24;;;;;;;0.45;0.40;;;8.90;99.90;;;;;;5045390;28;20401;-80
2024/04/01 10:08:11;;;;;;;0.40;0.30;;;9.30;99.90;;;;;;5035941;28;20444;-79
2024/04/01 10:10:46;;;;;;;0.50;0.40;;;;;;;;;;4995863;28;20392;-81
2024/04/01 10:13:26;;;;;;;0.50;0.30;;;8.90;99.90;;;;;;5042825;28;20404;-83
2024/04/01 10:15:58;;;;;;;0.40;0.30;;;8.90;99.90;;;;;;5023341;28;20438;-80
2024/04/01 10:18:47;;;;;;;0.50;0.30;;;9.70;99.90;;;;;;5027153;28;20423;-79
2024/04/01 10:21:24;;;;;;;0.40;0.30;;;9.90;99.90;;;;;;5022952;28;20416;-79
2024/04/01 10:24:22;;;;;;;0.40;0.30;;;9.50;99.90;;;;;;5025680;28;20449;-82
2024/04/01 10:27:16;;;;;;;0.60;0.40;;;8.30;99.90;;;;;;5018350;28;20400;-81
2024/04/01 10:30:07;;;;;;;0.40;0.40;;;9.40;99.90;;;;;;5023592;28;20497;-80
2024/04/01 10:32:35;;;;;;;0.40;0.30;;;9.30;99.90;;;;;;5023019;28;20437;-80
2024/04/01 10:35:28;;;;;;;1.10;0.30;;;8.70;99.90;;;;;;5037221;28;20432;-81
2024/04/01 10:38:32;;;;;;;1.70;0.40;;;8.40;99.90;;;;;;5058621;28;20382;-79
2024/04/01 10:41:22;;;;;;;0.40;0.30;;;9.00;99.90;;;;;;5042199;28;20437;-81
2024/04/01 10:44:12;;;;;;;0.40;0.30;;;9.40;99.90;;;;;;5035481;28;20394;-80
2024/04/01 10:47:25;;;;;;;0.50;0.40;;;9.90;99.90;;;;;;5041557;28;20389;-81
2024/04/01 10:50:25;;;;;;;0.50;0.30;;;9.30;99.90;;;;;;5021409;28;20438;-81
2024/04/01 10:53:34;;;;;;;1.00;0.30;;;9.40;99.90;;;;;;5073830;23;20425;-82
2024/04/01 10:56:18;;;;;;;0.40;0.30;;;9.50;99.90;;;;;;5074340;28;20460;-82
2024/04/01 10:59:06;;;;;;;0.60;0.40;;;9.30;99.90;;;;;;5069547;28;20415;-83
2024/04/01 11:01:43;;;;;;;0.50;0.40;;;10.00;99.90;;;;;;5049098;28;20375;-83
2024/04/01 11:04:34;;;;;;;1.00;0.30;;;9.30;99.90;;;;;;5064112;28;20401;-83
2024/04/01 11:07:22;;;;;;;0.55;0.40;;;9.30;99.90;;;;;;5059980;28;20840;-83
2024/04/01 11:10:09;;;;;;;0.60;0.40;;;9.40;99.90;;;;;;5064676;28;20412;-85
2024/04/01 11:12:39;;;;;;;0.50;0.30;;;;;;;;;;5061301;28;20397;-85
2024/04/01 11:15:07;;;;;;;0.50;0.40;;;9.00;99.90;;;;;;5056434;28;20405;-83
2024/04/01 11:17:34;;;;;;;1.00;0.43;;;9.30;99.90;;;;;;5037008;28;20409;-83
2024/04/01 11:20:11;;;;;;;0.60;0.50;;;;;;;;;;5061897;28;20401;-84
2024/04/01 11:22:43;;;;;;;0.50;0.50;;;9.40;99.90;;;;;;5054649;28;20382;-83
2024/04/01 11:25:53;;;;;;;0.40;0.40;;;9.60;99.90;;;;;;5044818;28;20403;-85
2024/04/01 11:28:34;;;;;;;0.60;0.40;;;;;;;;;;5055822;28;20473;-83
2024/04/01 11:31:07;;;;;;;0.75;0.40;;;9.80;99.90;;;;;;5067506;28;20412;-84
2024/04/01 11:33:42;;;;;;;0.50;0.30;;;9.30;99.90;;;;;;5057281;28;20483;-83
2024/04/01 11:36:09;;;;;;;0.80;0.50;;;;;;;;;;5048623;28;20389;-83
2024/04/01 11:39:12;;;;;;;0.70;0.50;;;9.80;99.90;;;;;;5058307;28;20388;-83
2024/04/01 11:41:42;;;;;;;0.45;0.40;;;9.20;99.90;;;;;;5023439;28;20421;-83
2024/04/01 11:44:10;;;;;;;1.40;0.40;;;10.00;99.90;;;;;;5054187;28;20437;-84
2024/04/01 11:46:39;;;;;;;0.50;0.40;;;9.10;99.90;;;;;;5052667;28;20436;-84
2024/04/01 11:49:04;;;;;;;0.50;0.50;;;9.70;99.90;;;;;;5057581;28;20405;-83
2024/04/01 11:51:34;;;;;;;2.00;0.60;;;9.30;99.90;;;;;;5059954;28;20909;-83
2024/04/01 11:54:00;;;;;;;0.70;0.50;;;9.60;99.90;;;;;;5059069;28;20393;-82
2024/04/01 11:56:36;;;;;;;0.90;0.50;;;10.10;99.90;;;;;;5067699;28;20408;-83
2024/04/01 11:59:02;;;;;;;0.60;0.50;;;10.50;99.90;;;;;;5054286;28;20404;-83
2024/04/01 12:01:35;;;;;;;0.70;0.40;;;10.10;99.90;;;;;;5062735;28;20435;-83
2024/04/01 12:04:02;;;;;;;0.70;0.40;;;10.20;99.90;;;;;;5050706;28;20413;-83
2024/04/01 12:06:32;;;;;;;2.55;0.55;;;9.40;99.90;;;;;;5053621;28;20432;-84
2024/04/01 12:09:00;;;;;;;1.30;0.90;;;10.40;99.90;;;;;;5040888;28;20496;-83
2024/04/01 12:11:29;;;;;;;1.30;0.50;;;10.70;99.90;;;;;;5037460;28;20410;-83
2024/04/01 12:13:56;;;;;;;0.50;0.30;;;10.10;99.90;;;;;;5039446;28;20412;-83
2024/04/01 12:16:25;;;;;;;0.80;0.60;;;10.50;99.90;;;;;;5063234;28;20392;-83
2024/04/01 12:18:51;;;;;;;0.70;0.40;;;10.00;99.90;;;;;;5054807;28;20413;-85
2024/04/01 12:21:18;;;;;;;0.82;0.70;;;;;;;;;;5054837;28;20414;-83
2024/04/01 12:23:44;;;;;;;0.60;0.40;;;10.10;99.90;;;;;;5054751;28;20403;-84
2024/04/01 12:26:11;;;;;;;1.60;0.50;;;10.60;99.90;;;;;;5054231;28;20413;-83
2024/04/01 12:28:38;;;;;;;1.30;0.50;;;;;;;;;;5057710;28;20415;-83
2024/04/01 12:31:04;;;;;;;0.73;0.50;;;;;;;;;;5056301;28;20381;-83
2024/04/01 12:33:36;;;;;;;1.25;0.95;;;10.60;99.90;;;;;;5064314;28;20457;-82
2024/04/01 12:36:02;;;;;;;0.70;0.40;;;9.80;99.90;;;;;;5061276;28;20435;-82
2024/04/01 12:38:33;;;;;;;1.37;0.60;;;9.80;99.90;;;;;;5071203;28;20409;-83
2024/04/01 12:41:00;;;;;;;0.60;0.50;;;;;;;;;;5045964;28;20425;-83
2024/04/01 12:43:27;;;;;;;0.50;0.40;;;10.20;99.90;;;;;;5070334;28;20412;-83
2024/04/01 12:45:54;;;;;;;1.00;0.60;;;10.20;99.90;;;;;;5057085;28;20396;-83
2024/04/01 12:48:21;;;;;;;1.00;0.50;;;;;;;;;;5060787;28;20413;-85
2024/04/01 12:50:50;;;;;;;0.70;0.50;;;9.90;99.90;;;;;;5060597;28;20405;-83
2024/04/01 12:53:41;;;;;;;0.60;0.40;;;10.90;99.90;;;;;;5061285;28;20394;-82
2024/04/01 12:56:17;;;;;;;0.90;0.40;;;10.50;99.90;;;;;;5051230;28;20406;-81
2024/04/01 12:59:02;;;;;;;0.70;0.50;;;;;;;;;;5039270;28;20417;-82
2024/04/01 13:01:58;;;;;;;0.70;0.43;;;11.10;99.90;;;;;;5063127;28;20407;-82
2024/04/01 13:04:42;;;;;;;0.90;0.50;;;11.20;99.90;;;;;;5060991;28;20405;-82
2024/04/01 13:07:49;;;;;;;0.50;0.40;;;10.60;99.90;;;;;;5048580;28;20868;-82
2024/04/01 13:10:25;;;;;;;0.60;0.40;;;10.90;99.90;;;;;;4995242;28;20475;-83
2024/04/01 13:13:15;;;;;;;0.70;0.50;;;11.60;99.90;;;;;;5000908;28;20437;-82
2024/04/01 13:15:57;;;;;;;1.50;0.60;;;;;;;;;;5044087;28;20408;-83
2024/04/01 13:18:30;;;;;;;0.60;0.50;;;12.00;99.90;;;;;;5061815;28;20777;-83
2024/04/01 13:21:03;;;;;;;0.93;0.50;;;12.20;99.90;;;;;;5061717;28;20485;-83
2024/04/01 13:24:00;;;;;;;1.27;0.50;;;11.80;99.90;;;;;;5057256;28;20432;-82